Allegheny, Pennsylvania
Current Conditions -  °F | °C
As of 4:18 AM on Saturday 01 Nov 2014 (Local Time) from KAGC Reporting Station
Haze Haze  
Wind Chill: 38°   Ceiling: 2500
Heat Index: 41°   Visibility: 2mi
Dew Point: 37°   Wind: 5mph
Humidity: 86%   Direction: 360°N
Pressure: 29.87"   Gusts: NA
Location:  40.4725°N, 80.0082°W
Report Text: KAGC 010818Z AUTO 36004KT 2SM BR BKN025 OVC034 05/03 A2987 RMK AO2 VIS 1 1/4V3 T00500028 TSNO
Loading
Personal Weather Stations






























Interactive Weather Map
Tropical Storm Tracking
New forecast layout! Learn more

10-Day Weather Forecast

Advertisements
Track Severe Weather on mobile